• Join FlightAware (Why Join?)
  • Login
  • US Flag 
06:38AM EDT


 

Airport Tracker/Info


-or-


 

Live Flight TrackerFlight Track Log ✈ AAL1631 ✈ 10-May-2013 ✈ KDCA - KMIA

Flight Track Log - Related Links

Times and Time Zones

All times are in EDT time to prevent confusion due to time zone crossing. See the AAL1631 flight status page for this flight to view local times or setup timezone preferences in your user account.

Time Position Orientation Groundspeed Altitude Reporting Facility
EDT Latitude Longitude Course Direction KTS MPH feet Rate Location/Type
06:09AM 38.8833 -77.0500 233° Southwest 160 184 1,500  Level Potomac TRACON
06:10AM 38.9167 -77.1000 311° West 233 268 3,300 2,700 Climbing Potomac TRACON
06:11AM 38.9667 -77.1667 314° West 264 304 6,900 3,420 Climbing Potomac TRACON
06:12AM 38.5807 -77.3293 222° Southwest  Level FlightAware Approximate
06:12AM 38.9500 -77.2500 256° West 292 336 10,300  Level Potomac TRACON
06:13AM 38.4931 -77.4352 225° Southwest  Level FlightAware Approximate
06:13AM 38.8667 -77.2833 197° South 314 361 12,800  Level Potomac TRACON
06:14AM 38.4053 -77.5390 201° Southwest  Level FlightAware Approximate
06:14AM 38.7833 -77.3333 205° Southwest 348 400 13,000  Level Potomac TRACON
06:15AM 38.3288 -77.6520 233° Southwest  Level FlightAware Approximate
06:15AM 38.7000 -77.4000 212° Southwest 363 418 13,900  Level Potomac TRACON
06:16AM 38.5967 -77.4483 200° South 376 433 16,800 2,520 Climbing Washington Center
06:17AM 38.5103 -77.5047 207° Southwest 376 433 19,200 2,280 Climbing Washington Center
06:18AM 38.4094 -77.5631 204° Southwest 388 447 21,400 2,160 Climbing Washington Center
06:19AM 38.3325 -77.6642 226° Southwest 389 448 23,600 1,980 Climbing Washington Center
06:20AM 38.2575 -77.7786 230° Southwest 405 466 25,400 1,680 Climbing Washington Center
06:21AM 38.1825 -77.8978 231° Southwest 421 484 27,000 1,620 Climbing Washington Center
06:22AM 38.1050 -78.0169 230° Southwest 443 510 28,700 1,800 Climbing Washington Center
06:23AM 38.0275 -78.1356 230° Southwest 443 510 30,700 2,160 Climbing Washington Center
06:24AM 37.9314 -78.2378 220° Southwest 427 491 33,000 1,620 Climbing Washington Center
06:25AM 37.8356 -78.3264 216° Southwest 421 484 34,000 600 Climbing Washington Center
06:26AM 37.7503 -78.4047 216° Southwest 430 495 34,200 600 Climbing Washington Center
06:27AM 37.6542 -78.4956 217° Southwest 430 495 35,200 1,080 Climbing Washington Center
06:28AM 37.5581 -78.5861 217° Southwest 441 507 36,400 1,080 Climbing Washington Center
06:29AM 37.4619 -78.6767 217° Southwest 441 507 37,400 780 Climbing Washington Center
06:30AM 37.3550 -78.7767 217° Southwest 441 507 38,000 300 Climbing Washington Center
06:31AM 37.2589 -78.8667 217° Southwest 441 507 38,000  Level Washington Center
06:32AM 37.1583 -78.9564 215° Southwest 441 507 38,000  Level Washington Center
06:33AM 37.0619 -79.0458 217° Southwest 441 507 38,000  Level Washington Center
06:34AM 36.9653 -79.1375 217° Southwest 441 507 38,000  Level Washington Center
06:35AM 36.8772 -79.2167 216° Southwest 441 507 38,000  Level Washington Center
06:36AM 36.7808 -79.3056 216° Southwest 441 507 38,000  Level Washington Center
06:37AM 36.6861 -79.3942 217° Southwest 441 507 38,000  Level Washington Center
06:38AM 36.5894 -79.4828 216° Southwest 441 507 38,000  Level Washington Center
06:40AM 36.3892 -79.6619 216° Southwest 440 506 38,000  Level Atlanta Center
06:41AM 36.2919 -79.7497 216° Southwest 435 501 38,000  Level Atlanta Center
06:42AM 36.1969 -79.8347 216° Southwest 435 501 38,000 -300 Level Atlanta Center
06:43AM 36.1119 -79.9111 216° Southwest 435 501 37,400 -720 Descending Atlanta Center
06:44AM 36.0103 -79.9933 213° Southwest 435 501 36,600 -900 Descending Atlanta Center
06:45AM 35.8933 -80.0528 202° Southwest 440 506 35,600 -960 Descending Atlanta Center
06:46AM 35.7742 -80.1047 199° South 452 520 34,700 -840 Descending Atlanta Center
06:47AM 35.6358 -80.1497 195° South 466 536 34,000 -660 Descending Atlanta Center
06:48AM 35.5075 -80.1864 193° South 471 542 33,400 -840 Descending Atlanta Center
06:49AM 35.3836 -80.2253 194° South 471 542 32,400 -1,020 Descending Atlanta Center
06:50AM 35.2597 -80.2642 194° South 471 542 31,400 -780 Descending Atlanta Center
06:53AM 34.9769 -80.3542 195° South 462 532 30,000 -480 Descending Jacksonville Center
06:54AM 34.8547 -80.3906 194° South 463 533 30,000  Level Jacksonville Center
06:55AM 34.7469 -80.4267 195° South 457 526 30,000  Level Jacksonville Center
06:56AM 34.6225 -80.4631 194° South 452 520 30,000  Level Jacksonville Center
06:57AM 34.5003 -80.5042 195° South 452 520 30,000  Level Jacksonville Center
06:58AM 34.3758 -80.5428 194° South 452 520 30,000  Level Jacksonville Center
06:59AM 34.2514 -80.5789 193° South 452 520 30,000  Level Jacksonville Center
07:00AM 34.1289 -80.6147 194° South 457 526 30,000  Level Jacksonville Center
07:01AM 34.0022 -80.6531 194° South 463 533 30,000 -60 Level Jacksonville Center
07:02AM 33.8778 -80.6914 194° South 463 533 29,900  Descending Jacksonville Center
07:03AM 33.7511 -80.7294 194° South 463 533 30,000  Climbing Jacksonville Center
07:04AM 33.6222 -80.7675 194° South 475 547 29,900  Descending Jacksonville Center
07:05AM 33.4958 -80.8078 195° South 475 547 30,000  Climbing Jacksonville Center
07:06AM 33.3669 -80.8433 193° South 475 547 30,000 -60 Level Jacksonville Center
07:07AM 33.2361 -80.8836 194° South 475 547 29,900 -60 Descending Jacksonville Center
07:08AM 33.1072 -80.9211 194° South 475 547 29,900  Level Jacksonville Center
07:09AM 32.9661 -80.9639 194° South 475 547 29,900  Level Jacksonville Center
07:10AM 32.8372 -80.9986 193° South 475 547 30,000  Climbing Jacksonville Center
07:11AM 32.7125 -81.0358 194° South 470 541 29,900  Descending Jacksonville Center
07:12AM 32.5878 -81.0756 195° South 470 541 30,000  Climbing Jacksonville Center
07:13AM 32.4567 -81.1125 193° South 470 541 30,000  Level Jacksonville Center
07:14AM 32.3278 -81.1469 193° South 476 548 30,000 -60 Level Jacksonville Center
07:15AM 32.2031 -81.1836 194° South 464 534 29,900  Descending Jacksonville Center
07:16AM 32.0739 -81.1983 186° South 474 545 30,000  Climbing Jacksonville Center
07:17AM 31.9400 -81.1936 178° South 475 547 30,000  Level Jacksonville Center
07:18AM 31.8064 -81.1886 178° South 480 552 30,000  Level Jacksonville Center
07:19AM 31.6769 -81.1836 178° South 484 557 30,000  Level Jacksonville Center
07:20AM 31.5536 -81.1811 179° South 479 551 30,000  Level Jacksonville Center
07:21AM 31.4075 -81.1764 178° South 479 551 30,000  Level Jacksonville Center
07:22AM 31.2697 -81.1742 179° South 479 551 30,000  Level Jacksonville Center
07:23AM 31.1339 -81.1717 179° South 487 560 30,000  Level Jacksonville Center
07:24AM 31.0003 -81.1669 178° South 487 560 30,000  Level Jacksonville Center
07:25AM 30.8622 -81.1597 177° South 493 567 30,000 -60 Level Jacksonville Center
07:26AM 30.7286 -81.1550 178° South 493 567 29,900  Descending Jacksonville Center
07:27AM 30.5947 -81.1308 171° South 493 567 30,000  Climbing Jacksonville Center
07:28AM 30.4586 -81.1117 173° South 498 573 29,900  Descending Jacksonville Center
07:29AM 30.3500 -81.0944 172° South 498 573 30,000  Climbing Jacksonville Center
07:30AM 30.2014 -81.0683 171° South 498 573 30,000  Level Jacksonville Center
07:31AM 30.0653 -81.0469 172° South 498 573 30,000  Level Jacksonville Center
07:32AM 29.9292 -81.0281 173° South 498 573 30,000  Level Jacksonville Center
07:33AM 29.7933 -81.0092 173° South 498 573 30,000 -60 Level Jacksonville Center
07:34AM 29.6594 -80.9878 172° South 498 573 29,900  Descending Jacksonville Center
07:36AM 29.3461 -80.9411 173° South 490 564 30,000  Climbing Miami Center
07:37AM 29.2133 -80.9172 171° South 490 564 30,000  Level Miami Center
07:38AM 29.0783 -80.8956 172° South 490 564 30,000 -420 Level Miami Center
07:39AM 28.9456 -80.8764 173° South 490 564 29,200 -960 Descending Miami Center
07:40AM 28.7981 -80.8497 171° South 483 556 28,100 -600 Descending Miami Center
07:41AM 28.6631 -80.8308 173° South 489 563 28,000 -60 Descending Miami Center
07:42AM 28.5261 -80.8022 170° South 494 568 28,000  Level Miami Center
07:43AM 28.3939 -80.7528 162° South 499 574 28,000  Level Miami Center
07:44AM 28.2764 -80.7039 160° South 499 574 28,000 -360 Level Miami Center
07:45AM 28.1461 -80.6525 161° South 505 581 27,300 -900 Descending Miami Center
07:46AM 28.0200 -80.6083 163° South 490 564 26,300 -720 Descending Miami Center
07:47AM 27.9000 -80.5667 163° South 473 544 25,900 -180 Descending Miami Center
07:48AM 27.7717 -80.5225 163° South 449 517 26,000  Climbing Miami Center
07:49AM 27.6558 -80.4836 163° South 444 511 26,000  Level Miami Center
07:50AM 27.5381 -80.4356 160° South 444 511 26,000 -480 Level Miami Center
07:51AM 27.4222 -80.3875 160° South 439 505 25,100 -1,020 Descending Miami Center
07:52AM 27.3086 -80.3442 161° South 439 505 24,000 -600 Descending Miami Center
07:53AM 27.1969 -80.2964 159° South 439 505 24,000  Level Miami Center
07:54AM 27.0853 -80.2536 161° South 439 505 24,000 -1,020 Level Miami Center
07:55AM 26.9756 -80.2083 160° South 434 499 22,000 -1,860 Descending Miami Center
07:56AM 26.8658 -80.1656 161° South 423 487 20,300 -1,800 Descending Miami Center
07:57AM 26.7667 -80.1233 159° South 395 455 18,400 -2,340 Descending Miami Center
07:58AM 26.6672 -80.0856 161° South 382 440 15,700 -2,220 Descending Miami Center
07:59AM 26.5736 -80.0714 172° South 343 395 14,100 -1,320 Descending Miami Center
08:00AM 26.4758 -80.0550 171° South 344 396 13,200 -540 Descending Miami Center
08:01AM 26.3822 -80.0361 170° South 346 398 13,000 -660 Descending Miami Center
08:01AM 26.3406 -80.0306 173° South 345 397 12,300 -1,800 Descending Miami Center
08:02AM 26.2822 -80.0197 171° South 336 387 11,200 -1,440 Descending Miami Center
08:03AM 26.2044 -80.0361 191° South 322 371 10,000 -600 Descending Miami Center
08:04AM 26.1186 -80.0522 190° South 329 379 10,000 -300 Level Miami Center
08:05AM 26.0408 -80.0756 195° South 306 352 9,400 -660 Descending Miami Center
08:05AM 26.0197 -80.0819 195° South 289 333 9,200 -1,320 Descending Miami Center
08:06AM 25.9672 -80.1014 198° South 294 338 8,100 -1,200 Descending Miami Center
08:06AM 25.9500 -80.1147 215° Southwest 274 315 8,000 -120 Descending Miami Center
08:07AM 25.9239 -80.1672 241° Southwest 266 306 8,000  Level Miami Center
08:07AM 25.9108 -80.1922 240° Southwest 233 268 8,000  Level Miami Center
08:08AM 25.8994 -80.2311 252° West 247 284 8,000  Level Miami Center
08:09AM 25.8839 -80.2678 245° Southwest 229 264 8,000 -1,020 Level Miami Center
08:09AM 25.8808 -80.3161 266° West 231 266 6,800 -1,140 Descending Miami Center
08:10AM 25.8767 -80.3944 267° West 205 236 6,000 -960 Descending Miami Center
08:11AM 25.8711 -80.4567 264° West 199 229 4,800 -1,020 Descending Miami Center
08:12AM 25.8675 -80.5167 266° West 195 224 4,000 -420 Descending Miami Center
08:13AM 25.8597 -80.5786 262° West 199 229 4,000  Level Miami Center
08:14AM 25.8092 -80.5933 195° South 176 203 4,000  Level Miami Center
08:16AM 25.7917 -80.5442 112° Southeast 177 204 4,000 -240 Level Miami Center
08:17AM 25.7928 -80.4936 89° East 178 205 3,600 -840 Descending Miami Center
08:18AM 25.7944 -80.4336 88° East 164 189 2,300 -1,200 Descending Miami Center